sensor_id;sensor_type;location;lat;lon;timestamp;temperature;humidity
55365;DHT22;41245;45.384;20.390;2023-02-28T00:00:10;102.80;2227.20
55365;DHT22;41245;45.384;20.390;2023-02-28T00:02:40;102.70;2227.20
55365;DHT22;41245;45.384;20.390;2023-02-28T00:05:06;102.60;2227.20
55365;DHT22;41245;45.384;20.390;2023-02-28T00:07:33;102.70;2227.20
55365;DHT22;41245;45.384;20.390;2023-02-28T00:09:59;102.80;2227.20
55365;DHT22;41245;45.384;20.390;2023-02-28T00:12:25;102.70;2227.20
55365;DHT22;41245;45.384;20.390;2023-02-28T00:14:52;102.50;2227.20
55365;DHT22;41245;45.384;20.390;2023-02-28T00:17:17;102.50;2227.20
55365;DHT22;41245;45.384;20.390;2023-02-28T00:19:47;102.50;2227.20
55365;DHT22;41245;45.384;20.390;2023-02-28T00:22:13;102.40;2227.20
55365;DHT22;41245;45.384;20.390;2023-02-28T00:24:39;102.40;2227.20
55365;DHT22;41245;45.384;20.390;2023-02-28T00:27:04;102.50;2227.20
55365;DHT22;41245;45.384;20.390;2023-02-28T00:29:30;102.50;2227.20
55365;DHT22;41245;45.384;20.390;2023-02-28T00:31:56;102.40;2227.20
55365;DHT22;41245;45.384;20.390;2023-02-28T00:39:16;77.20;2227.20
55365;DHT22;41245;45.384;20.390;2023-02-28T00:41:42;77.00;2227.20
55365;DHT22;41245;45.384;20.390;2023-02-28T00:48:59;77.10;2227.20
55365;DHT22;41245;45.384;20.390;2023-02-28T00:51:25;77.00;2227.20
55365;DHT22;41245;45.384;20.390;2023-02-28T00:53:51;76.80;2227.20
55365;DHT22;41245;45.384;20.390;2023-02-28T00:56:16;52.00;2227.20
55365;DHT22;41245;45.384;20.390;2023-02-28T00:58:42;51.90;1484.80
55365;DHT22;41245;45.384;20.390;2023-02-28T01:01:07;52.00;1228.80
55365;DHT22;41245;45.384;20.390;2023-02-28T01:03:33;52.00;1817.60
55365;DHT22;41245;45.384;20.390;2023-02-28T01:05:59;51.70;2227.20
55365;DHT22;41245;45.384;20.390;2023-02-28T01:08:24;51.80;1766.40
55365;DHT22;41245;45.384;20.390;2023-02-28T01:10:51;51.90;1484.80
55365;DHT22;41245;45.384;20.390;2023-02-28T01:13:17;51.80;1510.40
55365;DHT22;41245;45.384;20.390;2023-02-28T01:15:49;51.80;1792.00
55365;DHT22;41245;45.384;20.390;2023-02-28T01:18:15;51.80;1484.80
55365;DHT22;41245;45.384;20.390;2023-02-28T01:20:41;51.90;1356.80
55365;DHT22;41245;45.384;20.390;2023-02-28T01:23:06;51.90;1689.60
55365;DHT22;41245;45.384;20.390;2023-02-28T01:25:34;51.60;6476.80
55365;DHT22;41245;45.384;20.390;2023-02-28T01:28:00;51.40;6476.80
55365;DHT22;41245;45.384;20.390;2023-02-28T01:30:26;51.50;332.80
55365;DHT22;41245;45.384;20.390;2023-02-28T01:32:51;51.40;6476.80
55365;DHT22;41245;45.384;20.390;2023-02-28T01:35:19;51.50;6476.80
55365;DHT22;41245;45.384;20.390;2023-02-28T01:37:44;51.70;6476.80
55365;DHT22;41245;45.384;20.390;2023-02-28T01:40:11;51.70;6476.80
55365;DHT22;41245;45.384;20.390;2023-02-28T01:42:37;51.70;6476.80
55365;DHT22;41245;45.384;20.390;2023-02-28T01:45:22;51.60;409.60
55365;DHT22;41245;45.384;20.390;2023-02-28T01:47:54;51.30;6476.80
55365;DHT22;41245;45.384;20.390;2023-02-28T01:50:23;51.40;6476.80
55365;DHT22;41245;45.384;20.390;2023-02-28T01:52:50;51.50;6476.80
55365;DHT22;41245;45.384;20.390;2023-02-28T01:55:18;51.50;6476.80
55365;DHT22;41245;45.384;20.390;2023-02-28T01:57:52;51.60;6476.80
55365;DHT22;41245;45.384;20.390;2023-02-28T02:00:22;51.70;6476.80
55365;DHT22;41245;45.384;20.390;2023-02-28T02:02:52;51.60;6476.80
55365;DHT22;41245;45.384;20.390;2023-02-28T02:05:24;51.70;6476.80
55365;DHT22;41245;45.384;20.390;2023-02-28T02:08:04;51.60;6476.80
55365;DHT22;41245;45.384;20.390;2023-02-28T02:10:33;51.70;6476.80
55365;DHT22;41245;45.384;20.390;2023-02-28T02:26:51;51.70;537.60
55365;DHT22;41245;45.384;20.390;2023-02-28T02:43:02;51.60;6476.80
55365;DHT22;41245;45.384;20.390;2023-02-28T02:45:38;51.50;6476.80
55365;DHT22;41245;45.384;20.390;2023-02-28T02:48:08;51.40;6476.80
55365;DHT22;41245;45.384;20.390;2023-02-28T02:50:41;51.60;6476.80
55365;DHT22;41245;45.384;20.390;2023-02-28T02:53:10;51.50;6476.80
55365;DHT22;41245;45.384;20.390;2023-02-28T02:55:40;51.70;6476.80
55365;DHT22;41245;45.384;20.390;2023-02-28T02:58:13;51.70;6476.80
55365;DHT22;41245;45.384;20.390;2023-02-28T03:00:43;51.40;6476.80
55365;DHT22;41245;45.384;20.390;2023-02-28T03:03:12;51.30;6476.80
55365;DHT22;41245;45.384;20.390;2023-02-28T03:05:51;51.30;6476.80
55365;DHT22;41245;45.384;20.390;2023-02-28T03:08:17;51.40;6476.80
55365;DHT22;41245;45.384;20.390;2023-02-28T03:10:44;51.60;6476.80
55365;DHT22;41245;45.384;20.390;2023-02-28T03:21:43;51.60;6476.80
55365;DHT22;41245;45.384;20.390;2023-02-28T03:24:18;51.60;6476.80
55365;DHT22;41245;45.384;20.390;2023-02-28T03:26:52;51.70;6476.80
55365;DHT22;41245;45.384;20.390;2023-02-28T03:29:37;51.60;6476.80
55365;DHT22;41245;45.384;20.390;2023-02-28T03:34:45;51.80;6476.80
55365;DHT22;41245;45.384;20.390;2023-02-28T03:37:16;52.00;6476.80
55365;DHT22;41245;45.384;20.390;2023-02-28T03:39:56;52.10;6476.80
55365;DHT22;41245;45.384;20.390;2023-02-28T03:42:27;52.10;6476.80
55365;DHT22;41245;45.384;20.390;2023-02-28T03:44:57;52.10;6476.80
55365;DHT22;41245;45.384;20.390;2023-02-28T03:47:27;52.00;6476.80
55365;DHT22;41245;45.384;20.390;2023-02-28T03:49:59;52.00;6476.80
55365;DHT22;41245;45.384;20.390;2023-02-28T03:52:30;52.00;6476.80
55365;DHT22;41245;45.384;20.390;2023-02-28T03:55:05;51.90;6476.80
55365;DHT22;41245;45.384;20.390;2023-02-28T03:57:48;52.00;6476.80
55365;DHT22;41245;45.384;20.390;2023-02-28T04:00:38;52.00;6476.80
55365;DHT22;41245;45.384;20.390;2023-02-28T04:03:05;51.90;6476.80
55365;DHT22;41245;45.384;20.390;2023-02-28T04:05:31;51.60;6476.80
55365;DHT22;41245;45.384;20.390;2023-02-28T04:08:04;51.50;6476.80
55365;DHT22;41245;45.384;20.390;2023-02-28T04:10:30;51.70;6476.80
55365;DHT22;41245;45.384;20.390;2023-02-28T04:12:56;51.70;6476.80
55365;DHT22;41245;45.384;20.390;2023-02-28T04:15:21;51.90;6476.80
55365;DHT22;41245;45.384;20.390;2023-02-28T04:17:48;51.90;6476.80
55365;DHT22;41245;45.384;20.390;2023-02-28T04:20:14;51.90;6476.80
55365;DHT22;41245;45.384;20.390;2023-02-28T04:22:39;52.10;6476.80
55365;DHT22;41245;45.384;20.390;2023-02-28T04:25:05;52.00;6476.80
55365;DHT22;41245;45.384;20.390;2023-02-28T04:27:31;52.10;6476.80
55365;DHT22;41245;45.384;20.390;2023-02-28T04:29:57;52.10;6476.80
55365;DHT22;41245;45.384;20.390;2023-02-28T04:32:22;52.10;6476.80
55365;DHT22;41245;45.384;20.390;2023-02-28T04:34:48;76.80;6476.80
55365;DHT22;41245;45.384;20.390;2023-02-28T04:37:13;52.10;6476.80
55365;DHT22;41245;45.384;20.390;2023-02-28T04:39:39;76.90;6476.80
55365;DHT22;41245;45.384;20.390;2023-02-28T04:42:05;76.90;6476.80
55365;DHT22;41245;45.384;20.390;2023-02-28T04:44:31;76.80;6476.80
55365;DHT22;41245;45.384;20.390;2023-02-28T04:46:57;76.90;6476.80
55365;DHT22;41245;45.384;20.390;2023-02-28T04:49:22;76.90;6476.80
55365;DHT22;41245;45.384;20.390;2023-02-28T04:51:48;76.90;6476.80
55365;DHT22;41245;45.384;20.390;2023-02-28T04:54:15;77.00;6476.80
55365;DHT22;41245;45.384;20.390;2023-02-28T04:56:41;77.00;6476.80
55365;DHT22;41245;45.384;20.390;2023-02-28T04:59:07;77.10;6476.80
55365;DHT22;41245;45.384;20.390;2023-02-28T05:01:33;76.90;6476.80
55365;DHT22;41245;45.384;20.390;2023-02-28T05:04:01;76.80;6476.80
55365;DHT22;41245;45.384;20.390;2023-02-28T05:06:29;52.10;6476.80
55365;DHT22;41245;45.384;20.390;2023-02-28T05:08:55;76.90;6476.80
55365;DHT22;41245;45.384;20.390;2023-02-28T05:11:32;76.80;6476.80
55365;DHT22;41245;45.384;20.390;2023-02-28T05:14:04;77.00;6476.80
55365;DHT22;41245;45.384;20.390;2023-02-28T05:16:31;77.10;6476.80
55365;DHT22;41245;45.384;20.390;2023-02-28T05:18:57;77.10;6476.80
55365;DHT22;41245;45.384;20.390;2023-02-28T05:23:52;76.80;6476.80
55365;DHT22;41245;45.384;20.390;2023-02-28T05:26:19;76.90;6476.80
55365;DHT22;41245;45.384;20.390;2023-02-28T05:28:45;77.00;6476.80
55365;DHT22;41245;45.384;20.390;2023-02-28T05:31:11;76.80;6476.80
55365;DHT22;41245;45.384;20.390;2023-02-28T05:33:36;77.00;6476.80
55365;DHT22;41245;45.384;20.390;2023-02-28T05:36:02;77.00;6476.80
55365;DHT22;41245;45.384;20.390;2023-02-28T05:38:28;77.10;6476.80
55365;DHT22;41245;45.384;20.390;2023-02-28T05:40:54;77.20;6476.80
55365;DHT22;41245;45.384;20.390;2023-02-28T05:43:19;77.20;6476.80
55365;DHT22;41245;45.384;20.390;2023-02-28T05:45:45;77.10;6476.80
55365;DHT22;41245;45.384;20.390;2023-02-28T05:48:11;77.20;6476.80
55365;DHT22;41245;45.384;20.390;2023-02-28T05:50:37;77.00;6476.80
55365;DHT22;41245;45.384;20.390;2023-02-28T05:53:03;76.80;6476.80
55365;DHT22;41245;45.384;20.390;2023-02-28T05:55:29;52.10;6476.80
55365;DHT22;41245;45.384;20.390;2023-02-28T05:57:55;52.00;6476.80
55365;DHT22;41245;45.384;20.390;2023-02-28T06:00:21;76.90;6476.80
55365;DHT22;41245;45.384;20.390;2023-02-28T06:02:47;76.80;6476.80
55365;DHT22;41245;45.384;20.390;2023-02-28T06:05:15;76.80;6476.80
55365;DHT22;41245;45.384;20.390;2023-02-28T06:07:41;77.10;6476.80
55365;DHT22;41245;45.384;20.390;2023-02-28T06:10:07;77.00;6476.80
55365;DHT22;41245;45.384;20.390;2023-02-28T06:12:33;77.00;6476.80
55365;DHT22;41245;45.384;20.390;2023-02-28T06:14:58;77.00;6476.80
55365;DHT22;41245;45.384;20.390;2023-02-28T06:17:24;77.00;6476.80
55365;DHT22;41245;45.384;20.390;2023-02-28T06:19:49;76.80;6476.80
55365;DHT22;41245;45.384;20.390;2023-02-28T06:22:15;77.00;6476.80
55365;DHT22;41245;45.384;20.390;2023-02-28T06:24:41;77.00;6476.80
55365;DHT22;41245;45.384;20.390;2023-02-28T06:27:06;77.20;6476.80
55365;DHT22;41245;45.384;20.390;2023-02-28T06:29:33;77.10;6476.80
55365;DHT22;41245;45.384;20.390;2023-02-28T06:31:59;77.10;6476.80
55365;DHT22;41245;45.384;20.390;2023-02-28T06:34:25;77.10;6476.80
55365;DHT22;41245;45.384;20.390;2023-02-28T06:36:51;77.10;6476.80
55365;DHT22;41245;45.384;20.390;2023-02-28T06:39:17;77.00;6476.80
55365;DHT22;41245;45.384;20.390;2023-02-28T06:41:43;77.10;6476.80
55365;DHT22;41245;45.384;20.390;2023-02-28T06:44:17;77.10;6476.80
55365;DHT22;41245;45.384;20.390;2023-02-28T06:46:44;77.20;6476.80
55365;DHT22;41245;45.384;20.390;2023-02-28T06:49:11;77.20;6476.80
55365;DHT22;41245;45.384;20.390;2023-02-28T06:51:38;77.10;6476.80
55365;DHT22;41245;45.384;20.390;2023-02-28T06:54:04;77.20;6476.80
55365;DHT22;41245;45.384;20.390;2023-02-28T06:56:30;77.10;6476.80
55365;DHT22;41245;45.384;20.390;2023-02-28T06:58:56;77.20;6476.80
55365;DHT22;41245;45.384;20.390;2023-02-28T07:01:22;77.30;6476.80
55365;DHT22;41245;45.384;20.390;2023-02-28T07:03:49;77.60;6476.80
55365;DHT22;41245;45.384;20.390;2023-02-28T07:06:18;77.50;6476.80
55365;DHT22;41245;45.384;20.390;2023-02-28T07:08:44;77.40;6476.80
55365;DHT22;41245;45.384;20.390;2023-02-28T07:11:09;77.50;6476.80
55365;DHT22;41245;45.384;20.390;2023-02-28T07:13:35;77.40;6476.80
55365;DHT22;41245;45.384;20.390;2023-02-28T07:16:04;77.20;6476.80
55365;DHT22;41245;45.384;20.390;2023-02-28T07:18:30;77.10;6476.80
55365;DHT22;41245;45.384;20.390;2023-02-28T07:20:56;76.90;6476.80
55365;DHT22;41245;45.384;20.390;2023-02-28T07:23:22;77.00;6476.80
55365;DHT22;41245;45.384;20.390;2023-02-28T07:25:49;77.00;6476.80
55365;DHT22;41245;45.384;20.390;2023-02-28T07:28:15;77.00;6476.80
55365;DHT22;41245;45.384;20.390;2023-02-28T07:30:41;77.10;6476.80
55365;DHT22;41245;45.384;20.390;2023-02-28T07:33:07;77.00;6476.80
55365;DHT22;41245;45.384;20.390;2023-02-28T07:35:33;76.90;6476.80
55365;DHT22;41245;45.384;20.390;2023-02-28T07:38:00;76.90;6476.80
55365;DHT22;41245;45.384;20.390;2023-02-28T07:40:26;77.00;6476.80
55365;DHT22;41245;45.384;20.390;2023-02-28T07:42:52;77.10;6476.80
55365;DHT22;41245;45.384;20.390;2023-02-28T07:45:17;76.90;6476.80
55365;DHT22;41245;45.384;20.390;2023-02-28T07:47:44;77.20;6476.80
55365;DHT22;41245;45.384;20.390;2023-02-28T07:50:12;77.20;6476.80
55365;DHT22;41245;45.384;20.390;2023-02-28T07:52:38;77.30;6476.80
55365;DHT22;41245;45.384;20.390;2023-02-28T07:55:05;77.60;6476.80
55365;DHT22;41245;45.384;20.390;2023-02-28T07:57:31;77.60;6476.80
55365;DHT22;41245;45.384;20.390;2023-02-28T07:59:57;77.40;6476.80
55365;DHT22;41245;45.384;20.390;2023-02-28T08:02:23;77.40;6476.80
55365;DHT22;41245;45.384;20.390;2023-02-28T08:04:48;77.20;6476.80
55365;DHT22;41245;45.384;20.390;2023-02-28T08:07:15;77.50;6476.80
55365;DHT22;41245;45.384;20.390;2023-02-28T08:09:42;77.60;6476.80
55365;DHT22;41245;45.384;20.390;2023-02-28T08:12:08;77.60;6476.80
55365;DHT22;41245;45.384;20.390;2023-02-28T08:14:34;77.30;6476.80
55365;DHT22;41245;45.384;20.390;2023-02-28T08:17:00;77.60;6476.80
55365;DHT22;41245;45.384;20.390;2023-02-28T08:19:26;102.40;6476.80
55365;DHT22;41245;45.384;20.390;2023-02-28T08:21:52;102.60;6476.80
55365;DHT22;41245;45.384;20.390;2023-02-28T08:24:17;102.50;6476.80
55365;DHT22;41245;45.384;20.390;2023-02-28T08:26:43;102.70;6476.80
55365;DHT22;41245;45.384;20.390;2023-02-28T08:29:08;102.60;6476.80
55365;DHT22;41245;45.384;20.390;2023-02-28T08:31:34;102.90;6476.80
55365;DHT22;41245;45.384;20.390;2023-02-28T08:34:05;103.00;6476.80
55365;DHT22;41245;45.384;20.390;2023-02-28T08:36:31;103.20;6476.80
55365;DHT22;41245;45.384;20.390;2023-02-28T08:38:57;103.10;6476.80
55365;DHT22;41245;45.384;20.390;2023-02-28T08:41:23;103.10;6476.80
55365;DHT22;41245;45.384;20.390;2023-02-28T08:43:48;102.90;6476.80
55365;DHT22;41245;45.384;20.390;2023-02-28T08:46:14;103.00;6476.80
55365;DHT22;41245;45.384;20.390;2023-02-28T08:48:40;102.70;6476.80
55365;DHT22;41245;45.384;20.390;2023-02-28T08:51:09;102.60;6476.80
55365;DHT22;41245;45.384;20.390;2023-02-28T08:53:36;102.90;6476.80
55365;DHT22;41245;45.384;20.390;2023-02-28T08:56:08;102.90;6476.80
55365;DHT22;41245;45.384;20.390;2023-02-28T08:58:34;103.00;281.60
55365;DHT22;41245;45.384;20.390;2023-02-28T09:01:06;103.10;6476.80
55365;DHT22;41245;45.384;20.390;2023-02-28T09:03:32;103.20;6476.80
55365;DHT22;41245;45.384;20.390;2023-02-28T09:06:00;103.20;6476.80
55365;DHT22;41245;45.384;20.390;2023-02-28T09:08:27;102.90;307.20
55365;DHT22;41245;45.384;20.390;2023-02-28T09:10:53;103.00;6476.80
55365;DHT22;41245;45.384;20.390;2023-02-28T09:13:20;103.10;6476.80
55365;DHT22;41245;45.384;20.390;2023-02-28T09:15:46;103.30;6476.80
55365;DHT22;41245;45.384;20.390;2023-02-28T09:18:12;103.30;6476.80
55365;DHT22;41245;45.384;20.390;2023-02-28T09:20:39;103.30;6476.80
55365;DHT22;41245;45.384;20.390;2023-02-28T09:23:06;103.00;563.20
55365;DHT22;41245;45.384;20.390;2023-02-28T09:25:32;103.30;6476.80
55365;DHT22;41245;45.384;20.390;2023-02-28T09:27:57;103.30;6476.80
55365;DHT22;41245;45.384;20.390;2023-02-28T09:30:23;103.20;1177.60
55365;DHT22;41245;45.384;20.390;2023-02-28T09:32:49;128.00;6502.40
55365;DHT22;41245;45.384;20.390;2023-02-28T09:35:22;128.10;6502.40
55365;DHT22;41245;45.384;20.390;2023-02-28T09:37:49;103.20;1305.60
55365;DHT22;41245;45.384;20.390;2023-02-28T09:40:16;128.00;6502.40
55365;DHT22;41245;45.384;20.390;2023-02-28T09:42:46;103.20;947.20
55365;DHT22;41245;45.384;20.390;2023-02-28T09:45:33;102.90;6476.80
55365;DHT22;41245;45.384;20.390;2023-02-28T09:48:10;103.20;6476.80
55365;DHT22;41245;45.384;20.390;2023-02-28T09:50:49;103.20;1382.40
55365;DHT22;41245;45.384;20.390;2023-02-28T09:53:31;103.10;6476.80
55365;DHT22;41245;45.384;20.390;2023-02-28T09:56:05;103.20;6476.80
55365;DHT22;41245;45.384;20.390;2023-02-28T09:58:49;103.30;6476.80
55365;DHT22;41245;45.384;20.390;2023-02-28T10:13:06;128.70;6502.40
55365;DHT22;41245;45.384;20.390;2023-02-28T10:32:57;154.00;793.60
55365;DHT22;41245;45.384;20.390;2023-02-28T11:18:46;179.40;2252.80
55365;DHT22;41245;45.384;20.390;2023-02-28T11:23:51;154.50;2252.80
55365;DHT22;41245;45.384;20.390;2023-02-28T11:26:53;154.50;2252.80
55365;DHT22;41245;45.384;20.390;2023-02-28T11:29:24;154.50;2252.80
55365;DHT22;41245;45.384;20.390;2023-02-28T11:34:35;154.30;2252.80
55365;DHT22;41245;45.384;20.390;2023-02-28T11:37:04;154.20;2252.80
55365;DHT22;41245;45.384;20.390;2023-02-28T11:39:32;154.20;2252.80
55365;DHT22;41245;45.384;20.390;2023-02-28T11:50:25;154.00;2252.80
55365;DHT22;41245;45.384;20.390;2023-02-28T11:52:54;154.30;2252.80
55365;DHT22;41245;45.384;20.390;2023-02-28T11:55:28;154.30;2252.80
55365;DHT22;41245;45.384;20.390;2023-02-28T12:28:12;153.90;2252.80
55365;DHT22;41245;45.384;20.390;2023-02-28T12:30:45;153.90;2252.80
55365;DHT22;41245;45.384;20.390;2023-02-28T12:33:17;154.00;2252.80
55365;DHT22;41245;45.384;20.390;2023-02-28T12:35:59;154.20;2252.80
55365;DHT22;41245;45.384;20.390;2023-02-28T12:38:29;154.50;2252.80
55365;DHT22;41245;45.384;20.390;2023-02-28T12:41:08;179.20;2252.80
55365;DHT22;41245;45.384;20.390;2023-02-28T12:43:44;179.40;2252.80
55365;DHT22;41245;45.384;20.390;2023-02-28T12:46:21;179.30;2252.80
55365;DHT22;41245;45.384;20.390;2023-02-28T12:48:55;179.30;2252.80
55365;DHT22;41245;45.384;20.390;2023-02-28T12:51:22;179.50;2252.80
55365;DHT22;41245;45.384;20.390;2023-02-28T12:54:12;179.70;2252.80
55365;DHT22;41245;45.384;20.390;2023-02-28T12:56:47;179.70;2252.80
55365;DHT22;41245;45.384;20.390;2023-02-28T13:09:58;179.30;2252.80
55365;DHT22;41245;45.384;20.390;2023-02-28T13:12:25;179.30;2252.80
55365;DHT22;41245;45.384;20.390;2023-02-28T13:17:28;179.50;2252.80
55365;DHT22;41245;45.384;20.390;2023-02-28T13:22:42;179.50;2252.80
55365;DHT22;41245;45.384;20.390;2023-02-28T13:28:09;179.50;2252.80
55365;DHT22;41245;45.384;20.390;2023-02-28T13:35:46;179.50;2252.80
55365;DHT22;41245;45.384;20.390;2023-02-28T13:38:16;179.70;2252.80
55365;DHT22;41245;45.384;20.390;2023-02-28T13:40:42;179.70;2252.80
55365;DHT22;41245;45.384;20.390;2023-02-28T13:43:09;179.40;2252.80
55365;DHT22;41245;45.384;20.390;2023-02-28T13:45:34;179.20;2252.80
55365;DHT22;41245;45.384;20.390;2023-02-28T13:48:18;179.40;2252.80
55365;DHT22;41245;45.384;20.390;2023-02-28T13:50:44;179.50;2252.80
55365;DHT22;41245;45.384;20.390;2023-02-28T14:01:07;179.50;2252.80
55365;DHT22;41245;45.384;20.390;2023-02-28T14:03:43;179.40;2252.80
55365;DHT22;41245;45.384;20.390;2023-02-28T14:06:25;179.40;2252.80
55365;DHT22;41245;45.384;20.390;2023-02-28T14:11:38;179.70;2252.80
55365;DHT22;41245;45.384;20.390;2023-02-28T14:14:06;154.50;2252.80
55365;DHT22;41245;45.384;20.390;2023-02-28T14:16:45;179.20;2252.80
55365;DHT22;41245;45.384;20.390;2023-02-28T14:21:50;179.20;2252.80
55365;DHT22;41245;45.384;20.390;2023-02-28T14:37:30;179.50;2252.80
55365;DHT22;41245;45.384;20.390;2023-02-28T14:39:58;179.60;2252.80
55365;DHT22;41245;45.384;20.390;2023-02-28T14:44:55;179.50;2252.80
55365;DHT22;41245;45.384;20.390;2023-02-28T14:47:25;179.70;2252.80
55365;DHT22;41245;45.384;20.390;2023-02-28T14:49:52;179.70;2252.80
55365;DHT22;41245;45.384;20.390;2023-02-28T14:52:24;179.80;2252.80
55365;DHT22;41245;45.384;20.390;2023-02-28T14:54:55;179.90;2252.80
55365;DHT22;41245;45.384;20.390;2023-02-28T14:57:26;180.00;2252.80
55365;DHT22;41245;45.384;20.390;2023-02-28T15:02:37;179.80;2252.80
55365;DHT22;41245;45.384;20.390;2023-02-28T15:07:38;180.00;2252.80
55365;DHT22;41245;45.384;20.390;2023-02-28T15:10:16;179.80;2252.80
55365;DHT22;41245;45.384;20.390;2023-02-28T15:12:52;180.00;2252.80
55365;DHT22;41245;45.384;20.390;2023-02-28T15:15:20;179.60;2252.80
55365;DHT22;41245;45.384;20.390;2023-02-28T15:17:50;179.70;2252.80
55365;DHT22;41245;45.384;20.390;2023-02-28T15:20:18;179.60;2252.80
55365;DHT22;41245;45.384;20.390;2023-02-28T15:22:45;179.60;2252.80
55365;DHT22;41245;45.384;20.390;2023-02-28T15:25:15;179.30;2252.80
55365;DHT22;41245;45.384;20.390;2023-02-28T15:27:48;179.60;2252.80
55365;DHT22;41245;45.384;20.390;2023-02-28T15:30:23;179.70;2252.80
55365;DHT22;41245;45.384;20.390;2023-02-28T15:33:18;179.80;2252.80
55365;DHT22;41245;45.384;20.390;2023-02-28T15:35:45;179.70;2252.80
55365;DHT22;41245;45.384;20.390;2023-02-28T15:38:24;179.70;2252.80
55365;DHT22;41245;45.384;20.390;2023-02-28T15:40:55;179.80;2252.80
55365;DHT22;41245;45.384;20.390;2023-02-28T15:43:27;179.90;2252.80
55365;DHT22;41245;45.384;20.390;2023-02-28T15:46:00;180.00;2252.80
55365;DHT22;41245;45.384;20.390;2023-02-28T15:51:17;179.90;2252.80
55365;DHT22;41245;45.384;20.390;2023-02-28T15:54:28;179.80;2252.80
55365;DHT22;41245;45.384;20.390;2023-02-28T15:57:01;179.70;2252.80
55365;DHT22;41245;45.384;20.390;2023-02-28T15:59:29;179.80;2252.80
55365;DHT22;41245;45.384;20.390;2023-02-28T16:04:36;179.90;2252.80
55365;DHT22;41245;45.384;20.390;2023-02-28T16:07:05;179.90;2252.80
55365;DHT22;41245;45.384;20.390;2023-02-28T16:09:31;180.00;2252.80
55365;DHT22;41245;45.384;20.390;2023-02-28T16:12:02;180.00;2252.80
55365;DHT22;41245;45.384;20.390;2023-02-28T16:14:29;180.00;2252.80
55365;DHT22;41245;45.384;20.390;2023-02-28T16:17:07;179.90;2252.80
55365;DHT22;41245;45.384;20.390;2023-02-28T16:19:35;179.80;2252.80
55365;DHT22;41245;45.384;20.390;2023-02-28T16:22:01;179.90;2252.80
55365;DHT22;41245;45.384;20.390;2023-02-28T16:24:26;180.00;2252.80
55365;DHT22;41245;45.384;20.390;2023-02-28T16:26:54;179.90;2252.80
55365;DHT22;41245;45.384;20.390;2023-02-28T16:29:26;179.80;2252.80
55365;DHT22;41245;45.384;20.390;2023-02-28T16:31:54;179.60;2252.80
55365;DHT22;41245;45.384;20.390;2023-02-28T16:34:20;179.70;2252.80
55365;DHT22;41245;45.384;20.390;2023-02-28T16:36:49;179.70;2252.80
55365;DHT22;41245;45.384;20.390;2023-02-28T16:39:15;179.80;2252.80
55365;DHT22;41245;45.384;20.390;2023-02-28T16:41:45;179.70;2252.80
55365;DHT22;41245;45.384;20.390;2023-02-28T16:44:14;179.70;2252.80
55365;DHT22;41245;45.384;20.390;2023-02-28T16:46:43;179.60;2252.80
55365;DHT22;41245;45.384;20.390;2023-02-28T16:49:11;179.70;2252.80
55365;DHT22;41245;45.384;20.390;2023-02-28T16:51:37;179.70;2252.80
55365;DHT22;41245;45.384;20.390;2023-02-28T16:54:03;179.50;2252.80
55365;DHT22;41245;45.384;20.390;2023-02-28T16:56:29;179.50;2252.80
55365;DHT22;41245;45.384;20.390;2023-02-28T16:58:57;179.70;2252.80
55365;DHT22;41245;45.384;20.390;2023-02-28T17:01:24;179.60;2252.80
55365;DHT22;41245;45.384;20.390;2023-02-28T17:03:52;179.70;2252.80
55365;DHT22;41245;45.384;20.390;2023-02-28T17:06:22;179.70;2252.80
55365;DHT22;41245;45.384;20.390;2023-02-28T17:08:49;179.70;2252.80
55365;DHT22;41245;45.384;20.390;2023-02-28T17:11:15;179.80;2252.80
55365;DHT22;41245;45.384;20.390;2023-02-28T17:13:41;179.80;2252.80
55365;DHT22;41245;45.384;20.390;2023-02-28T17:16:17;179.60;2252.80
55365;DHT22;41245;45.384;20.390;2023-02-28T17:18:43;179.80;2252.80
55365;DHT22;41245;45.384;20.390;2023-02-28T17:21:17;179.70;2252.80
55365;DHT22;41245;45.384;20.390;2023-02-28T17:23:43;179.80;2252.80
55365;DHT22;41245;45.384;20.390;2023-02-28T17:26:14;179.90;2252.80
55365;DHT22;41245;45.384;20.390;2023-02-28T17:28:40;180.00;2252.80
55365;DHT22;41245;45.384;20.390;2023-02-28T17:31:07;180.00;2252.80
55365;DHT22;41245;45.384;20.390;2023-02-28T17:33:33;180.00;2252.80
55365;DHT22;41245;45.384;20.390;2023-02-28T17:35:59;180.10;2252.80
55365;DHT22;41245;45.384;20.390;2023-02-28T17:38:24;179.90;2252.80
55365;DHT22;41245;45.384;20.390;2023-02-28T17:40:50;179.90;2252.80
55365;DHT22;41245;45.384;20.390;2023-02-28T17:43:15;179.80;2252.80
55365;DHT22;41245;45.384;20.390;2023-02-28T17:45:41;179.80;2252.80
55365;DHT22;41245;45.384;20.390;2023-02-28T17:48:10;179.70;2252.80
55365;DHT22;41245;45.384;20.390;2023-02-28T17:50:36;179.50;2252.80
55365;DHT22;41245;45.384;20.390;2023-02-28T17:53:02;179.40;2252.80
55365;DHT22;41245;45.384;20.390;2023-02-28T17:55:27;179.30;2252.80
55365;DHT22;41245;45.384;20.390;2023-02-28T17:57:53;154.50;2252.80
55365;DHT22;41245;45.384;20.390;2023-02-28T18:00:19;179.20;2252.80
55365;DHT22;41245;45.384;20.390;2023-02-28T18:02:45;179.20;2252.80
55365;DHT22;41245;45.384;20.390;2023-02-28T18:05:11;154.50;2252.80
55365;DHT22;41245;45.384;20.390;2023-02-28T18:07:37;179.20;2252.80
55365;DHT22;41245;45.384;20.390;2023-02-28T18:10:05;154.30;2252.80
55365;DHT22;41245;45.384;20.390;2023-02-28T18:12:31;154.10;2252.80
55365;DHT22;41245;45.384;20.390;2023-02-28T18:14:57;154.20;2252.80
55365;DHT22;41245;45.384;20.390;2023-02-28T18:17:22;154.30;2252.80
55365;DHT22;41245;45.384;20.390;2023-02-28T18:19:48;154.20;2252.80
55365;DHT22;41245;45.384;20.390;2023-02-28T18:22:14;154.50;2252.80
55365;DHT22;41245;45.384;20.390;2023-02-28T18:24:39;179.30;2252.80
55365;DHT22;41245;45.384;20.390;2023-02-28T18:27:05;179.30;2252.80
55365;DHT22;41245;45.384;20.390;2023-02-28T18:29:31;179.20;2252.80
55365;DHT22;41245;45.384;20.390;2023-02-28T18:31:58;179.20;2252.80
55365;DHT22;41245;45.384;20.390;2023-02-28T18:34:24;154.50;2252.80
55365;DHT22;41245;45.384;20.390;2023-02-28T18:36:51;179.30;2252.80
55365;DHT22;41245;45.384;20.390;2023-02-28T18:39:18;179.30;2252.80